RJTH(METAR)
04/24 17:00
RJTH 240800Z 18007G17KT 9999 RA FEW010 SCT020 BKN030 19/16 Q1015
RMK A2998=
戻る
トップページへ戻る
IMOC Co,.Ltd.